sensor_id;sensor_type;location;lat;lon;timestamp;P1;durP1;ratioP1;P2;durP2;ratioP2
52414;SDS011;38340;52.964;6.086;2024-02-26T00:02:18;22.10;;;14.15;;
52414;SDS011;38340;52.964;6.086;2024-02-26T00:04:44;22.80;;;13.82;;
52414;SDS011;38340;52.964;6.086;2024-02-26T00:07:10;23.50;;;14.32;;
52414;SDS011;38340;52.964;6.086;2024-02-26T00:09:35;23.08;;;14.35;;
52414;SDS011;38340;52.964;6.086;2024-02-26T00:12:02;23.52;;;14.68;;
52414;SDS011;38340;52.964;6.086;2024-02-26T00:14:29;23.95;;;14.52;;
52414;SDS011;38340;52.964;6.086;2024-02-26T00:16:55;22.83;;;14.40;;
52414;SDS011;38340;52.964;6.086;2024-02-26T00:19:21;22.05;;;14.48;;
52414;SDS011;38340;52.964;6.086;2024-02-26T00:21:47;23.50;;;13.38;;
52414;SDS011;38340;52.964;6.086;2024-02-26T00:24:12;21.75;;;14.45;;
52414;SDS011;38340;52.964;6.086;2024-02-26T00:26:38;20.08;;;12.90;;
52414;SDS011;38340;52.964;6.086;2024-02-26T00:29:04;24.48;;;14.25;;
52414;SDS011;38340;52.964;6.086;2024-02-26T00:31:29;22.67;;;13.82;;
52414;SDS011;38340;52.964;6.086;2024-02-26T00:33:55;22.70;;;13.68;;
52414;SDS011;38340;52.964;6.086;2024-02-26T00:36:21;22.02;;;13.38;;
52414;SDS011;38340;52.964;6.086;2024-02-26T00:38:47;23.75;;;14.20;;
52414;SDS011;38340;52.964;6.086;2024-02-26T00:41:16;20.33;;;12.82;;
52414;SDS011;38340;52.964;6.086;2024-02-26T00:43:42;20.92;;;12.75;;
52414;SDS011;38340;52.964;6.086;2024-02-26T00:46:08;23.77;;;13.73;;
52414;SDS011;38340;52.964;6.086;2024-02-26T00:48:34;21.45;;;12.77;;
52414;SDS011;38340;52.964;6.086;2024-02-26T00:51:00;20.48;;;14.18;;
52414;SDS011;38340;52.964;6.086;2024-02-26T00:53:26;19.63;;;13.23;;
52414;SDS011;38340;52.964;6.086;2024-02-26T00:55:52;23.02;;;14.60;;
52414;SDS011;38340;52.964;6.086;2024-02-26T00:58:17;22.50;;;13.18;;
52414;SDS011;38340;52.964;6.086;2024-02-26T01:00:44;22.73;;;14.20;;
52414;SDS011;38340;52.964;6.086;2024-02-26T01:03:09;24.98;;;14.80;;
52414;SDS011;38340;52.964;6.086;2024-02-26T01:05:35;23.20;;;13.98;;
52414;SDS011;38340;52.964;6.086;2024-02-26T01:08:02;22.98;;;13.32;;
52414;SDS011;38340;52.964;6.086;2024-02-26T01:10:28;25.83;;;14.80;;
52414;SDS011;38340;52.964;6.086;2024-02-26T01:12:54;23.58;;;14.23;;
52414;SDS011;38340;52.964;6.086;2024-02-26T01:15:20;24.95;;;15.65;;
52414;SDS011;38340;52.964;6.086;2024-02-26T01:17:49;24.85;;;15.27;;
52414;SDS011;38340;52.964;6.086;2024-02-26T01:20:15;24.83;;;15.85;;
52414;SDS011;38340;52.964;6.086;2024-02-26T01:22:42;26.40;;;15.07;;
52414;SDS011;38340;52.964;6.086;2024-02-26T01:25:08;24.45;;;15.88;;
52414;SDS011;38340;52.964;6.086;2024-02-26T01:27:35;26.52;;;15.77;;
52414;SDS011;38340;52.964;6.086;2024-02-26T01:30:02;27.38;;;16.38;;
52414;SDS011;38340;52.964;6.086;2024-02-26T01:32:29;27.67;;;17.05;;
52414;SDS011;38340;52.964;6.086;2024-02-26T01:34:55;26.52;;;17.42;;
52414;SDS011;38340;52.964;6.086;2024-02-26T01:37:21;27.15;;;17.30;;
52414;SDS011;38340;52.964;6.086;2024-02-26T01:39:47;28.08;;;16.75;;
52414;SDS011;38340;52.964;6.086;2024-02-26T01:42:12;29.73;;;17.88;;
52414;SDS011;38340;52.964;6.086;2024-02-26T01:44:38;28.75;;;17.80;;
52414;SDS011;38340;52.964;6.086;2024-02-26T01:47:04;29.38;;;17.08;;
52414;SDS011;38340;52.964;6.086;2024-02-26T01:49:32;32.78;;;17.27;;
52414;SDS011;38340;52.964;6.086;2024-02-26T01:51:58;33.78;;;18.10;;
52414;SDS011;38340;52.964;6.086;2024-02-26T01:54:24;32.03;;;16.73;;
52414;SDS011;38340;52.964;6.086;2024-02-26T01:56:50;34.28;;;19.42;;
52414;SDS011;38340;52.964;6.086;2024-02-26T01:59:16;34.95;;;18.30;;
52414;SDS011;38340;52.964;6.086;2024-02-26T02:01:44;31.88;;;17.83;;
52414;SDS011;38340;52.964;6.086;2024-02-26T02:04:12;33.80;;;18.88;;
52414;SDS011;38340;52.964;6.086;2024-02-26T02:06:39;34.38;;;19.63;;
52414;SDS011;38340;52.964;6.086;2024-02-26T02:09:07;33.67;;;20.35;;
52414;SDS011;38340;52.964;6.086;2024-02-26T02:11:33;31.77;;;20.15;;
52414;SDS011;38340;52.964;6.086;2024-02-26T02:13:59;37.45;;;21.08;;
52414;SDS011;38340;52.964;6.086;2024-02-26T02:16:25;30.98;;;18.67;;
52414;SDS011;38340;52.964;6.086;2024-02-26T02:18:50;35.65;;;20.20;;
52414;SDS011;38340;52.964;6.086;2024-02-26T02:21:16;34.05;;;20.02;;
52414;SDS011;38340;52.964;6.086;2024-02-26T02:23:42;35.63;;;20.77;;
52414;SDS011;38340;52.964;6.086;2024-02-26T02:26:11;33.30;;;20.35;;
52414;SDS011;38340;52.964;6.086;2024-02-26T02:28:40;37.38;;;21.88;;
52414;SDS011;38340;52.964;6.086;2024-02-26T02:31:06;38.95;;;22.30;;
52414;SDS011;38340;52.964;6.086;2024-02-26T02:33:33;34.40;;;22.08;;
52414;SDS011;38340;52.964;6.086;2024-02-26T02:35:59;40.55;;;23.85;;
52414;SDS011;38340;52.964;6.086;2024-02-26T02:38:25;36.90;;;21.98;;
52414;SDS011;38340;52.964;6.086;2024-02-26T02:40:52;32.90;;;20.70;;
52414;SDS011;38340;52.964;6.086;2024-02-26T02:43:18;39.42;;;21.92;;
52414;SDS011;38340;52.964;6.086;2024-02-26T02:45:43;34.90;;;21.00;;
52414;SDS011;38340;52.964;6.086;2024-02-26T02:48:10;36.38;;;21.75;;
52414;SDS011;38340;52.964;6.086;2024-02-26T02:50:36;37.92;;;22.15;;
52414;SDS011;38340;52.964;6.086;2024-02-26T02:53:02;36.35;;;21.73;;
52414;SDS011;38340;52.964;6.086;2024-02-26T02:55:28;36.60;;;21.88;;
52414;SDS011;38340;52.964;6.086;2024-02-26T02:57:54;32.80;;;19.75;;
52414;SDS011;38340;52.964;6.086;2024-02-26T03:00:19;34.13;;;19.90;;
52414;SDS011;38340;52.964;6.086;2024-02-26T03:02:48;35.05;;;20.48;;
52414;SDS011;38340;52.964;6.086;2024-02-26T03:05:14;30.42;;;19.00;;
52414;SDS011;38340;52.964;6.086;2024-02-26T03:07:40;31.45;;;19.55;;
52414;SDS011;38340;52.964;6.086;2024-02-26T03:10:05;30.05;;;19.17;;
52414;SDS011;38340;52.964;6.086;2024-02-26T03:12:31;31.40;;;18.65;;
52414;SDS011;38340;52.964;6.086;2024-02-26T03:14:58;30.15;;;17.63;;
52414;SDS011;38340;52.964;6.086;2024-02-26T03:17:26;28.15;;;18.08;;
52414;SDS011;38340;52.964;6.086;2024-02-26T03:19:52;26.15;;;16.45;;
52414;SDS011;38340;52.964;6.086;2024-02-26T03:22:19;24.17;;;16.20;;
52414;SDS011;38340;52.964;6.086;2024-02-26T03:24:45;30.02;;;16.98;;
52414;SDS011;38340;52.964;6.086;2024-02-26T03:27:11;25.27;;;15.38;;
52414;SDS011;38340;52.964;6.086;2024-02-26T03:29:37;25.73;;;16.23;;
52414;SDS011;38340;52.964;6.086;2024-02-26T03:32:03;23.13;;;15.40;;
52414;SDS011;38340;52.964;6.086;2024-02-26T03:34:29;22.65;;;14.57;;
52414;SDS011;38340;52.964;6.086;2024-02-26T03:36:56;24.60;;;14.30;;
52414;SDS011;38340;52.964;6.086;2024-02-26T03:39:22;19.73;;;12.88;;
52414;SDS011;38340;52.964;6.086;2024-02-26T03:41:48;22.65;;;14.18;;
52414;SDS011;38340;52.964;6.086;2024-02-26T03:44:13;24.75;;;12.88;;
52414;SDS011;38340;52.964;6.086;2024-02-26T03:46:40;21.02;;;12.43;;
52414;SDS011;38340;52.964;6.086;2024-02-26T03:49:07;18.73;;;12.98;;
52414;SDS011;38340;52.964;6.086;2024-02-26T03:51:34;20.40;;;12.88;;
52414;SDS011;38340;52.964;6.086;2024-02-26T03:54:00;19.95;;;12.80;;
52414;SDS011;38340;52.964;6.086;2024-02-26T03:56:26;19.00;;;13.00;;
52414;SDS011;38340;52.964;6.086;2024-02-26T03:58:52;17.50;;;11.70;;
52414;SDS011;38340;52.964;6.086;2024-02-26T04:01:18;17.25;;;11.27;;
52414;SDS011;38340;52.964;6.086;2024-02-26T04:03:44;16.92;;;11.85;;
52414;SDS011;38340;52.964;6.086;2024-02-26T04:06:10;15.85;;;9.93;;
52414;SDS011;38340;52.964;6.086;2024-02-26T04:08:37;14.13;;;9.88;;
52414;SDS011;38340;52.964;6.086;2024-02-26T04:11:03;15.43;;;10.88;;
52414;SDS011;38340;52.964;6.086;2024-02-26T04:13:35;13.70;;;10.15;;
52414;SDS011;38340;52.964;6.086;2024-02-26T04:16:06;17.48;;;10.60;;
52414;SDS011;38340;52.964;6.086;2024-02-26T04:18:32;13.45;;;9.68;;
52414;SDS011;38340;52.964;6.086;2024-02-26T04:20:58;14.95;;;9.65;;
52414;SDS011;38340;52.964;6.086;2024-02-26T04:23:24;15.32;;;9.95;;
52414;SDS011;38340;52.964;6.086;2024-02-26T04:25:50;12.45;;;9.15;;
52414;SDS011;38340;52.964;6.086;2024-02-26T04:28:15;13.05;;;9.57;;
52414;SDS011;38340;52.964;6.086;2024-02-26T04:30:41;15.10;;;10.02;;
52414;SDS011;38340;52.964;6.086;2024-02-26T04:33:07;15.30;;;9.32;;
52414;SDS011;38340;52.964;6.086;2024-02-26T04:35:32;13.10;;;9.07;;
52414;SDS011;38340;52.964;6.086;2024-02-26T04:38:00;14.20;;;9.50;;
52414;SDS011;38340;52.964;6.086;2024-02-26T04:40:26;15.27;;;9.63;;
52414;SDS011;38340;52.964;6.086;2024-02-26T04:42:52;13.75;;;8.35;;
52414;SDS011;38340;52.964;6.086;2024-02-26T04:45:17;13.63;;;9.07;;
52414;SDS011;38340;52.964;6.086;2024-02-26T04:47:43;13.80;;;9.13;;
52414;SDS011;38340;52.964;6.086;2024-02-26T04:50:09;12.38;;;8.40;;
52414;SDS011;38340;52.964;6.086;2024-02-26T04:52:34;11.48;;;8.20;;
52414;SDS011;38340;52.964;6.086;2024-02-26T04:55:01;11.32;;;8.50;;
52414;SDS011;38340;52.964;6.086;2024-02-26T04:57:27;12.60;;;7.40;;
52414;SDS011;38340;52.964;6.086;2024-02-26T04:59:53;10.27;;;7.38;;
52414;SDS011;38340;52.964;6.086;2024-02-26T05:02:19;10.75;;;7.35;;
52414;SDS011;38340;52.964;6.086;2024-02-26T05:04:44;10.85;;;7.03;;
52414;SDS011;38340;52.964;6.086;2024-02-26T05:07:10;8.35;;;6.25;;
52414;SDS011;38340;52.964;6.086;2024-02-26T05:09:37;10.48;;;7.13;;
52414;SDS011;38340;52.964;6.086;2024-02-26T05:12:03;11.07;;;7.00;;
52414;SDS011;38340;52.964;6.086;2024-02-26T05:14:29;15.10;;;7.35;;
52414;SDS011;38340;52.964;6.086;2024-02-26T05:16:55;11.43;;;7.38;;
52414;SDS011;38340;52.964;6.086;2024-02-26T05:19:21;9.10;;;6.07;;
52414;SDS011;38340;52.964;6.086;2024-02-26T05:21:47;9.20;;;6.22;;
52414;SDS011;38340;52.964;6.086;2024-02-26T05:24:14;10.05;;;6.38;;
52414;SDS011;38340;52.964;6.086;2024-02-26T05:26:42;9.85;;;6.47;;
52414;SDS011;38340;52.964;6.086;2024-02-26T05:29:08;8.73;;;5.90;;
52414;SDS011;38340;52.964;6.086;2024-02-26T05:31:34;9.18;;;6.30;;
52414;SDS011;38340;52.964;6.086;2024-02-26T05:33:59;10.00;;;6.03;;
52414;SDS011;38340;52.964;6.086;2024-02-26T05:36:25;8.63;;;5.65;;
52414;SDS011;38340;52.964;6.086;2024-02-26T05:38:51;8.85;;;5.82;;
52414;SDS011;38340;52.964;6.086;2024-02-26T05:41:17;14.77;;;6.43;;
52414;SDS011;38340;52.964;6.086;2024-02-26T05:43:51;50.95;;;10.68;;
52414;SDS011;38340;52.964;6.086;2024-02-26T05:46:17;9.90;;;6.25;;
52414;SDS011;38340;52.964;6.086;2024-02-26T05:48:44;11.82;;;6.10;;
52414;SDS011;38340;52.964;6.086;2024-02-26T05:51:12;9.88;;;6.15;;
52414;SDS011;38340;52.964;6.086;2024-02-26T05:53:38;7.45;;;5.47;;
52414;SDS011;38340;52.964;6.086;2024-02-26T05:56:03;9.02;;;5.60;;
52414;SDS011;38340;52.964;6.086;2024-02-26T05:58:29;12.68;;;6.47;;
52414;SDS011;38340;52.964;6.086;2024-02-26T06:00:55;8.27;;;5.65;;
52414;SDS011;38340;52.964;6.086;2024-02-26T06:03:20;8.27;;;5.43;;
52414;SDS011;38340;52.964;6.086;2024-02-26T06:05:46;15.05;;;6.72;;
52414;SDS011;38340;52.964;6.086;2024-02-26T06:08:11;39.85;;;7.68;;
52414;SDS011;38340;52.964;6.086;2024-02-26T06:10:38;12.18;;;5.30;;
52414;SDS011;38340;52.964;6.086;2024-02-26T06:13:04;9.38;;;6.03;;
52414;SDS011;38340;52.964;6.086;2024-02-26T06:15:30;10.10;;;5.05;;
52414;SDS011;38340;52.964;6.086;2024-02-26T06:17:56;15.80;;;6.20;;
52414;SDS011;38340;52.964;6.086;2024-02-26T06:20:21;6.82;;;5.45;;
52414;SDS011;38340;52.964;6.086;2024-02-26T06:22:47;16.17;;;6.13;;
52414;SDS011;38340;52.964;6.086;2024-02-26T06:25:13;11.48;;;5.43;;
52414;SDS011;38340;52.964;6.086;2024-02-26T06:27:38;8.30;;;5.32;;
52414;SDS011;38340;52.964;6.086;2024-02-26T06:30:05;11.90;;;5.60;;
52414;SDS011;38340;52.964;6.086;2024-02-26T06:32:31;7.10;;;5.13;;
52414;SDS011;38340;52.964;6.086;2024-02-26T06:34:57;9.82;;;4.93;;
52414;SDS011;38340;52.964;6.086;2024-02-26T06:37:22;9.68;;;5.32;;
52414;SDS011;38340;52.964;6.086;2024-02-26T06:39:48;6.57;;;5.03;;
52414;SDS011;38340;52.964;6.086;2024-02-26T06:42:14;6.97;;;5.25;;
52414;SDS011;38340;52.964;6.086;2024-02-26T06:44:39;10.95;;;5.30;;
52414;SDS011;38340;52.964;6.086;2024-02-26T06:47:05;7.47;;;4.97;;
52414;SDS011;38340;52.964;6.086;2024-02-26T06:49:31;11.57;;;5.43;;
52414;SDS011;38340;52.964;6.086;2024-02-26T06:51:56;7.25;;;5.50;;
52414;SDS011;38340;52.964;6.086;2024-02-26T06:54:22;7.93;;;5.00;;
52414;SDS011;38340;52.964;6.086;2024-02-26T06:56:48;9.30;;;5.18;;
52414;SDS011;38340;52.964;6.086;2024-02-26T06:59:13;6.70;;;4.90;;
52414;SDS011;38340;52.964;6.086;2024-02-26T07:01:40;8.30;;;5.03;;
52414;SDS011;38340;52.964;6.086;2024-02-26T07:04:07;6.53;;;5.20;;
52414;SDS011;38340;52.964;6.086;2024-02-26T07:06:35;7.80;;;5.40;;
52414;SDS011;38340;52.964;6.086;2024-02-26T07:09:01;11.82;;;4.70;;
52414;SDS011;38340;52.964;6.086;2024-02-26T07:11:27;6.38;;;4.95;;
52414;SDS011;38340;52.964;6.086;2024-02-26T07:13:52;9.73;;;5.30;;
52414;SDS011;38340;52.964;6.086;2024-02-26T07:16:18;6.53;;;5.40;;
52414;SDS011;38340;52.964;6.086;2024-02-26T07:18:44;7.68;;;5.57;;
52414;SDS011;38340;52.964;6.086;2024-02-26T07:21:11;7.38;;;4.95;;
52414;SDS011;38340;52.964;6.086;2024-02-26T07:23:37;8.13;;;5.53;;
52414;SDS011;38340;52.964;6.086;2024-02-26T07:26:02;6.20;;;5.10;;
52414;SDS011;38340;52.964;6.086;2024-02-26T07:28:28;7.18;;;5.65;;
52414;SDS011;38340;52.964;6.086;2024-02-26T07:30:54;7.93;;;5.30;;
52414;SDS011;38340;52.964;6.086;2024-02-26T07:33:20;7.60;;;5.35;;
52414;SDS011;38340;52.964;6.086;2024-02-26T07:35:46;10.15;;;4.90;;
52414;SDS011;38340;52.964;6.086;2024-02-26T07:38:11;8.38;;;5.25;;
52414;SDS011;38340;52.964;6.086;2024-02-26T07:40:38;6.35;;;5.30;;
52414;SDS011;38340;52.964;6.086;2024-02-26T07:43:04;6.50;;;5.10;;
52414;SDS011;38340;52.964;6.086;2024-02-26T07:45:30;9.07;;;5.85;;
52414;SDS011;38340;52.964;6.086;2024-02-26T07:47:56;7.85;;;5.13;;
52414;SDS011;38340;52.964;6.086;2024-02-26T07:50:21;5.75;;;4.97;;
52414;SDS011;38340;52.964;6.086;2024-02-26T07:52:47;7.03;;;4.40;;
52414;SDS011;38340;52.964;6.086;2024-02-26T07:55:13;6.35;;;5.28;;
52414;SDS011;38340;52.964;6.086;2024-02-26T07:57:41;8.05;;;5.07;;
52414;SDS011;38340;52.964;6.086;2024-02-26T08:00:08;8.23;;;4.75;;
52414;SDS011;38340;52.964;6.086;2024-02-26T08:02:35;5.78;;;4.53;;
52414;SDS011;38340;52.964;6.086;2024-02-26T08:05:01;7.90;;;5.25;;
52414;SDS011;38340;52.964;6.086;2024-02-26T08:07:27;8.98;;;5.07;;
52414;SDS011;38340;52.964;6.086;2024-02-26T08:09:53;8.63;;;4.53;;
52414;SDS011;38340;52.964;6.086;2024-02-26T08:12:19;7.75;;;5.50;;
52414;SDS011;38340;52.964;6.086;2024-02-26T08:14:45;7.88;;;5.07;;
52414;SDS011;38340;52.964;6.086;2024-02-26T08:17:11;10.85;;;4.63;;
52414;SDS011;38340;52.964;6.086;2024-02-26T08:19:36;7.53;;;5.03;;
52414;SDS011;38340;52.964;6.086;2024-02-26T08:22:02;6.82;;;4.63;;
52414;SDS011;38340;52.964;6.086;2024-02-26T08:24:28;6.72;;;5.30;;
52414;SDS011;38340;52.964;6.086;2024-02-26T08:26:54;8.20;;;4.90;;
52414;SDS011;38340;52.964;6.086;2024-02-26T08:29:20;6.70;;;4.90;;
52414;SDS011;38340;52.964;6.086;2024-02-26T08:31:45;8.38;;;5.30;;
52414;SDS011;38340;52.964;6.086;2024-02-26T08:34:11;6.32;;;4.88;;
52414;SDS011;38340;52.964;6.086;2024-02-26T08:36:37;6.75;;;4.93;;
52414;SDS011;38340;52.964;6.086;2024-02-26T08:39:02;7.28;;;4.70;;
52414;SDS011;38340;52.964;6.086;2024-02-26T08:41:29;6.47;;;4.50;;
52414;SDS011;38340;52.964;6.086;2024-02-26T08:43:54;7.28;;;4.78;;
52414;SDS011;38340;52.964;6.086;2024-02-26T08:46:20;5.82;;;4.85;;
52414;SDS011;38340;52.964;6.086;2024-02-26T08:48:46;6.78;;;4.80;;
52414;SDS011;38340;52.964;6.086;2024-02-26T08:51:12;9.98;;;4.90;;
52414;SDS011;38340;52.964;6.086;2024-02-26T08:53:38;6.10;;;4.68;;
52414;SDS011;38340;52.964;6.086;2024-02-26T08:56:04;13.88;;;5.00;;
52414;SDS011;38340;52.964;6.086;2024-02-26T08:58:30;7.15;;;4.63;;
52414;SDS011;38340;52.964;6.086;2024-02-26T09:00:56;7.22;;;4.75;;
52414;SDS011;38340;52.964;6.086;2024-02-26T09:03:22;5.60;;;4.10;;
52414;SDS011;38340;52.964;6.086;2024-02-26T09:05:47;8.18;;;3.95;;
52414;SDS011;38340;52.964;6.086;2024-02-26T09:08:13;9.05;;;4.45;;
52414;SDS011;38340;52.964;6.086;2024-02-26T09:10:39;10.50;;;4.68;;
52414;SDS011;38340;52.964;6.086;2024-02-26T09:13:05;5.25;;;3.97;;
52414;SDS011;38340;52.964;6.086;2024-02-26T09:15:31;9.20;;;3.78;;
52414;SDS011;38340;52.964;6.086;2024-02-26T09:17:56;7.72;;;4.38;;
52414;SDS011;38340;52.964;6.086;2024-02-26T09:20:22;8.63;;;3.70;;
52414;SDS011;38340;52.964;6.086;2024-02-26T09:22:48;4.95;;;3.75;;
52414;SDS011;38340;52.964;6.086;2024-02-26T09:25:16;4.90;;;3.83;;
52414;SDS011;38340;52.964;6.086;2024-02-26T09:27:42;5.28;;;3.88;;
52414;SDS011;38340;52.964;6.086;2024-02-26T09:30:09;4.97;;;3.70;;
52414;SDS011;38340;52.964;6.086;2024-02-26T09:32:35;4.28;;;3.60;;
52414;SDS011;38340;52.964;6.086;2024-02-26T09:35:01;6.75;;;3.80;;
52414;SDS011;38340;52.964;6.086;2024-02-26T09:37:27;5.13;;;3.63;;
52414;SDS011;38340;52.964;6.086;2024-02-26T09:39:53;4.03;;;3.33;;
52414;SDS011;38340;52.964;6.086;2024-02-26T09:42:18;4.85;;;3.85;;
52414;SDS011;38340;52.964;6.086;2024-02-26T09:44:44;4.25;;;3.47;;
52414;SDS011;38340;52.964;6.086;2024-02-26T09:47:11;3.70;;;3.08;;
52414;SDS011;38340;52.964;6.086;2024-02-26T09:49:41;5.32;;;3.50;;
52414;SDS011;38340;52.964;6.086;2024-02-26T09:52:08;5.90;;;3.90;;
52414;SDS011;38340;52.964;6.086;2024-02-26T09:54:36;3.75;;;3.08;;
52414;SDS011;38340;52.964;6.086;2024-02-26T09:57:03;5.07;;;3.88;;
52414;SDS011;38340;52.964;6.086;2024-02-26T09:59:36;4.28;;;3.67;;
52414;SDS011;38340;52.964;6.086;2024-02-26T10:02:06;6.30;;;3.35;;
52414;SDS011;38340;52.964;6.086;2024-02-26T10:04:36;5.22;;;3.53;;
52414;SDS011;38340;52.964;6.086;2024-02-26T10:07:03;5.20;;;3.67;;
52414;SDS011;38340;52.964;6.086;2024-02-26T10:09:30;6.93;;;3.35;;
52414;SDS011;38340;52.964;6.086;2024-02-26T10:11:57;6.25;;;4.00;;
52414;SDS011;38340;52.964;6.086;2024-02-26T10:14:23;3.65;;;3.25;;
52414;SDS011;38340;52.964;6.086;2024-02-26T10:16:49;5.15;;;4.10;;
52414;SDS011;38340;52.964;6.086;2024-02-26T10:19:34;5.22;;;3.83;;
52414;SDS011;38340;52.964;6.086;2024-02-26T10:22:00;4.78;;;3.80;;
52414;SDS011;38340;52.964;6.086;2024-02-26T10:24:27;3.90;;;3.42;;
52414;SDS011;38340;52.964;6.086;2024-02-26T10:26:54;4.53;;;3.72;;
52414;SDS011;38340;52.964;6.086;2024-02-26T10:29:20;4.63;;;3.75;;
52414;SDS011;38340;52.964;6.086;2024-02-26T10:31:47;5.93;;;4.03;;
52414;SDS011;38340;52.964;6.086;2024-02-26T10:34:14;4.70;;;3.50;;
52414;SDS011;38340;52.964;6.086;2024-02-26T10:36:41;6.13;;;3.90;;
52414;SDS011;38340;52.964;6.086;2024-02-26T10:39:07;5.05;;;4.07;;
52414;SDS011;38340;52.964;6.086;2024-02-26T10:41:33;5.53;;;3.85;;
52414;SDS011;38340;52.964;6.086;2024-02-26T10:43:59;9.13;;;3.42;;
52414;SDS011;38340;52.964;6.086;2024-02-26T10:46:25;6.18;;;3.72;;
52414;SDS011;38340;52.964;6.086;2024-02-26T10:48:52;5.45;;;3.30;;
52414;SDS011;38340;52.964;6.086;2024-02-26T10:51:28;4.40;;;3.78;;
52414;SDS011;38340;52.964;6.086;2024-02-26T10:53:56;4.35;;;3.63;;
52414;SDS011;38340;52.964;6.086;2024-02-26T10:56:26;3.80;;;3.40;;
52414;SDS011;38340;52.964;6.086;2024-02-26T10:58:54;6.03;;;3.50;;
52414;SDS011;38340;52.964;6.086;2024-02-26T11:01:20;3.20;;;2.75;;
52414;SDS011;38340;52.964;6.086;2024-02-26T11:03:51;4.75;;;3.10;;
52414;SDS011;38340;52.964;6.086;2024-02-26T11:06:21;3.55;;;2.92;;
52414;SDS011;38340;52.964;6.086;2024-02-26T11:08:48;4.03;;;3.20;;
52414;SDS011;38340;52.964;6.086;2024-02-26T11:11:15;5.30;;;3.00;;
52414;SDS011;38340;52.964;6.086;2024-02-26T11:13:45;4.53;;;3.03;;
52414;SDS011;38340;52.964;6.086;2024-02-26T11:16:19;5.93;;;2.72;;
52414;SDS011;38340;52.964;6.086;2024-02-26T11:18:47;3.90;;;2.97;;
52414;SDS011;38340;52.964;6.086;2024-02-26T11:21:17;4.57;;;3.28;;
52414;SDS011;38340;52.964;6.086;2024-02-26T11:23:47;4.63;;;2.90;;
52414;SDS011;38340;52.964;6.086;2024-02-26T11:26:13;3.83;;;3.22;;
52414;SDS011;38340;52.964;6.086;2024-02-26T11:28:41;5.30;;;2.90;;
52414;SDS011;38340;52.964;6.086;2024-02-26T11:31:09;6.25;;;2.92;;
52414;SDS011;38340;52.964;6.086;2024-02-26T11:33:35;4.30;;;2.88;;
52414;SDS011;38340;52.964;6.086;2024-02-26T11:36:01;4.47;;;3.17;;
52414;SDS011;38340;52.964;6.086;2024-02-26T11:38:32;4.40;;;2.70;;
52414;SDS011;38340;52.964;6.086;2024-02-26T11:40:58;3.28;;;2.67;;
52414;SDS011;38340;52.964;6.086;2024-02-26T11:46:26;3.03;;;2.42;;
52414;SDS011;38340;52.964;6.086;2024-02-26T11:49:03;3.47;;;2.70;;
52414;SDS011;38340;52.964;6.086;2024-02-26T11:57:20;3.13;;;2.72;;
52414;SDS011;38340;52.964;6.086;2024-02-26T12:00:12;4.35;;;3.00;;
52414;SDS011;38340;52.964;6.086;2024-02-26T12:05:15;3.78;;;3.08;;
52414;SDS011;38340;52.964;6.086;2024-02-26T12:07:43;3.50;;;2.90;;
52414;SDS011;38340;52.964;6.086;2024-02-26T12:13:06;3.42;;;3.10;;
52414;SDS011;38340;52.964;6.086;2024-02-26T12:15:39;4.68;;;3.63;;
52414;SDS011;38340;52.964;6.086;2024-02-26T12:18:10;5.28;;;3.45;;
52414;SDS011;38340;52.964;6.086;2024-02-26T12:20:43;4.68;;;3.50;;
52414;SDS011;38340;52.964;6.086;2024-02-26T12:23:09;3.80;;;3.30;;
52414;SDS011;38340;52.964;6.086;2024-02-26T12:25:42;6.93;;;4.15;;
52414;SDS011;38340;52.964;6.086;2024-02-26T12:28:09;9.02;;;3.78;;
52414;SDS011;38340;52.964;6.086;2024-02-26T12:30:34;4.68;;;3.80;;
52414;SDS011;38340;52.964;6.086;2024-02-26T12:33:00;5.55;;;3.55;;
52414;SDS011;38340;52.964;6.086;2024-02-26T12:35:27;6.30;;;3.97;;
52414;SDS011;38340;52.964;6.086;2024-02-26T12:37:53;6.20;;;4.20;;
52414;SDS011;38340;52.964;6.086;2024-02-26T12:40:19;6.15;;;4.47;;
52414;SDS011;38340;52.964;6.086;2024-02-26T12:42:46;5.22;;;3.78;;
52414;SDS011;38340;52.964;6.086;2024-02-26T12:45:12;5.45;;;4.50;;
52414;SDS011;38340;52.964;6.086;2024-02-26T12:47:43;7.22;;;4.63;;
52414;SDS011;38340;52.964;6.086;2024-02-26T12:50:14;5.38;;;4.88;;
52414;SDS011;38340;52.964;6.086;2024-02-26T12:52:44;5.78;;;4.57;;
52414;SDS011;38340;52.964;6.086;2024-02-26T12:55:13;7.82;;;5.00;;
52414;SDS011;38340;52.964;6.086;2024-02-26T12:57:40;7.15;;;4.47;;
52414;SDS011;38340;52.964;6.086;2024-02-26T13:00:14;6.32;;;4.82;;
52414;SDS011;38340;52.964;6.086;2024-02-26T13:02:42;6.38;;;4.80;;
52414;SDS011;38340;52.964;6.086;2024-02-26T13:05:10;6.88;;;5.38;;
52414;SDS011;38340;52.964;6.086;2024-02-26T13:07:40;8.55;;;5.70;;
52414;SDS011;38340;52.964;6.086;2024-02-26T13:10:09;6.78;;;4.60;;
52414;SDS011;38340;52.964;6.086;2024-02-26T13:12:45;6.45;;;5.28;;
52414;SDS011;38340;52.964;6.086;2024-02-26T13:15:16;7.55;;;5.60;;
52414;SDS011;38340;52.964;6.086;2024-02-26T13:17:43;5.68;;;4.95;;
52414;SDS011;38340;52.964;6.086;2024-02-26T13:20:09;5.93;;;4.85;;
52414;SDS011;38340;52.964;6.086;2024-02-26T13:22:36;10.13;;;5.57;;
52414;SDS011;38340;52.964;6.086;2024-02-26T13:25:02;7.22;;;4.78;;
52414;SDS011;38340;52.964;6.086;2024-02-26T13:27:28;8.27;;;5.32;;
52414;SDS011;38340;52.964;6.086;2024-02-26T13:30:10;7.25;;;5.32;;
52414;SDS011;38340;52.964;6.086;2024-02-26T13:32:38;9.15;;;5.28;;
52414;SDS011;38340;52.964;6.086;2024-02-26T13:35:05;6.93;;;5.18;;
52414;SDS011;38340;52.964;6.086;2024-02-26T13:37:35;5.82;;;4.90;;
52414;SDS011;38340;52.964;6.086;2024-02-26T13:40:08;8.65;;;5.78;;
52414;SDS011;38340;52.964;6.086;2024-02-26T13:42:35;8.07;;;5.18;;
52414;SDS011;38340;52.964;6.086;2024-02-26T13:45:02;8.05;;;6.13;;
52414;SDS011;38340;52.964;6.086;2024-02-26T13:47:30;8.93;;;5.43;;
52414;SDS011;38340;52.964;6.086;2024-02-26T13:49:56;7.40;;;5.53;;
52414;SDS011;38340;52.964;6.086;2024-02-26T13:52:22;8.13;;;5.53;;
52414;SDS011;38340;52.964;6.086;2024-02-26T13:54:48;10.55;;;5.90;;
52414;SDS011;38340;52.964;6.086;2024-02-26T13:57:14;6.90;;;5.85;;
52414;SDS011;38340;52.964;6.086;2024-02-26T13:59:39;7.88;;;5.32;;
52414;SDS011;38340;52.964;6.086;2024-02-26T14:02:08;8.18;;;6.03;;
52414;SDS011;38340;52.964;6.086;2024-02-26T14:04:34;7.40;;;5.70;;
52414;SDS011;38340;52.964;6.086;2024-02-26T14:07:00;6.30;;;5.65;;
52414;SDS011;38340;52.964;6.086;2024-02-26T14:09:26;7.72;;;5.75;;
52414;SDS011;38340;52.964;6.086;2024-02-26T14:11:51;11.75;;;5.68;;
52414;SDS011;38340;52.964;6.086;2024-02-26T14:14:17;11.23;;;5.53;;
52414;SDS011;38340;52.964;6.086;2024-02-26T14:16:42;10.50;;;6.00;;
52414;SDS011;38340;52.964;6.086;2024-02-26T14:19:08;8.65;;;5.20;;
52414;SDS011;38340;52.964;6.086;2024-02-26T14:21:34;9.88;;;6.05;;
52414;SDS011;38340;52.964;6.086;2024-02-26T14:24:00;8.57;;;5.35;;
52414;SDS011;38340;52.964;6.086;2024-02-26T14:26:26;9.05;;;6.63;;
52414;SDS011;38340;52.964;6.086;2024-02-26T14:28:51;6.88;;;5.40;;
52414;SDS011;38340;52.964;6.086;2024-02-26T14:31:17;10.20;;;6.22;;
52414;SDS011;38340;52.964;6.086;2024-02-26T14:33:43;6.53;;;5.47;;
52414;SDS011;38340;52.964;6.086;2024-02-26T14:36:09;8.63;;;6.30;;
52414;SDS011;38340;52.964;6.086;2024-02-26T14:38:36;7.20;;;5.97;;
52414;SDS011;38340;52.964;6.086;2024-02-26T14:41:02;8.10;;;6.15;;
52414;SDS011;38340;52.964;6.086;2024-02-26T14:43:28;10.70;;;6.18;;
52414;SDS011;38340;52.964;6.086;2024-02-26T14:45:55;7.43;;;5.93;;
52414;SDS011;38340;52.964;6.086;2024-02-26T14:48:22;8.27;;;5.80;;
52414;SDS011;38340;52.964;6.086;2024-02-26T14:50:48;8.45;;;6.07;;